Terminal Aerodrome Forecast
Issued by NWS

Home | Current Version | Previous Version | Text Only | Print | Product List | Glossary On
Versions: 1 2 3 4 5 6 7 8 9 10 11 12 13 14 15 16 17 18 19 20 21 22
387
FTUS41 KBTV 110537
TAFMPV
TAF
KMPV 110537Z 1106/1206 31005KT P6SM VCSH OVC040
     FM111500 32011G18KT P6SM VCSH OVC045
     FM111800 31010G19KT P6SM VCSH OVC035
     FM120200 31009KT P6SM BKN040=

USA.gov is the U.S. government's official web portal to all federal, state and local government web resources and services.